Airport ID:KRTS
Update Time (UTC):09/12/2022 09:35
Wind Speed (Knots):11
Wind Direction (Magnetic):230
Temperature (°C):2
Dew Point (°C):-5
Humidity (%):60
Altimeter (inHg):30.02
Density Altitude (Feet):
Visibility:10+
Clouds (Hundreds of feet):CLR
Present Weather:
METAR:METAR KRTS 090930Z AUTO 25011G18KT 10SM CLR 02/M05 A3001 RMK AO2

The data displayed is for advisory purposes only and is not to be used for flight planning or operations.